Terminal Aerodrome Forecast
Issued by NWS

Current Version | Previous Version | Text Only | Print | Product List | Glossary On
Versions: 1 2 3 4 5 6 7 8 9 10 11 12
027
FTUS46 KHNX 051133
TAFMER
TAF
KMER 051133Z 0512/0612 34005KT P6SM SCT060 OVC090
     FM051800 28006KT P6SM SCT030 BKN060
      TEMPO 0520/0523 6SM -SHRA OVC050
     FM060000 32006KT P6SM -SHRA SCT030 BKN050 PROB30 0600/0606 4SM
      TSRA BKN025CB
     FM060600 32006KT P6SM -SHRA OVC050=

USA.gov is the U.S. government's official web portal to all federal, state and local government web resources and services.